createdAt,value
2018-05-16T00:00:23.311Z,8.50
2018-05-16T00:01:23.273Z,8.60
2018-05-16T00:02:23.240Z,8.70
2018-05-16T00:03:23.194Z,8.40
2018-05-16T00:04:23.143Z,8.50
2018-05-16T00:05:23.101Z,8.20
2018-05-16T00:06:23.145Z,9.10
2018-05-16T00:07:23.024Z,8.50
2018-05-16T00:08:22.988Z,8.60
2018-05-16T00:09:23.327Z,9.10
2018-05-16T00:10:22.910Z,9.00
2018-05-16T00:11:22.871Z,8.50
2018-05-16T00:12:22.820Z,8.50
2018-05-16T00:13:22.786Z,9.00
2018-05-16T00:14:22.752Z,8.10
2018-05-16T00:15:22.700Z,8.80
2018-05-16T00:16:22.663Z,8.70
2018-05-16T00:17:22.623Z,8.70
2018-05-16T00:18:22.579Z,8.30
2018-05-16T00:19:22.538Z,8.50
2018-05-16T00:20:22.502Z,8.00
2018-05-16T00:21:22.461Z,8.30
2018-05-16T00:22:22.423Z,8.50
2018-05-16T00:23:22.379Z,8.50
2018-05-16T00:24:22.339Z,8.20
2018-05-16T00:25:22.334Z,8.60
2018-05-16T00:26:22.258Z,8.90
2018-05-16T00:27:22.217Z,8.70
2018-05-16T00:28:22.177Z,8.30
2018-05-16T00:29:22.151Z,8.60
2018-05-16T00:30:22.097Z,9.10
2018-05-16T00:31:22.056Z,8.80
2018-05-16T00:32:22.029Z,8.60
2018-05-16T00:33:21.981Z,8.70
2018-05-16T00:34:21.946Z,8.80
2018-05-16T00:35:21.906Z,8.70
2018-05-16T00:36:21.856Z,8.70
2018-05-16T00:37:21.816Z,9.00
2018-05-16T00:38:21.812Z,8.40
2018-05-16T00:39:21.735Z,8.80
2018-05-16T00:40:21.699Z,9.60
2018-05-16T00:41:21.659Z,8.70
2018-05-16T00:42:21.619Z,8.70
2018-05-16T00:43:21.583Z,9.00
2018-05-16T00:44:21.538Z,8.80
2018-05-16T00:45:22.131Z,8.80
2018-05-16T00:46:21.453Z,8.80
2018-05-16T00:47:21.414Z,8.50
2018-05-16T00:48:21.373Z,8.50
2018-05-16T00:49:21.334Z,8.50
2018-05-16T00:50:21.298Z,8.40
2018-05-16T00:51:21.262Z,8.90
2018-05-16T00:52:21.217Z,9.10
2018-05-16T00:53:21.173Z,8.50
2018-05-16T00:54:21.137Z,8.40
2018-05-16T00:55:21.094Z,8.90
2018-05-16T00:56:21.085Z,8.50
2018-05-16T00:57:21.016Z,8.70
2018-05-16T00:58:20.974Z,8.40
2018-05-16T00:59:20.936Z,8.10
2018-05-16T01:00:20.892Z,8.50
2018-05-16T01:01:20.854Z,9.30
2018-05-16T01:02:20.811Z,7.90
2018-05-16T01:03:20.782Z,8.00
2018-05-16T01:04:20.730Z,7.60
2018-05-16T01:05:20.690Z,8.00
2018-05-16T01:06:20.650Z,7.70
2018-05-16T01:07:20.622Z,7.70
2018-05-16T01:08:20.572Z,7.70
2018-05-16T01:09:20.533Z,7.40
2018-05-16T01:10:20.494Z,7.10
2018-05-16T01:11:20.455Z,6.90
2018-05-16T01:12:20.411Z,6.70
2018-05-16T01:13:20.371Z,6.60
2018-05-16T01:14:20.329Z,6.30
2018-05-16T01:15:20.290Z,6.20
2018-05-16T01:16:20.247Z,6.10
2018-05-16T01:17:20.208Z,6.30
2018-05-16T01:18:20.167Z,6.20
2018-05-16T01:19:20.138Z,6.10
2018-05-16T01:20:20.090Z,6.00
2018-05-16T01:21:20.049Z,5.60
2018-05-16T01:22:20.014Z,5.70
2018-05-16T01:23:19.965Z,5.70
2018-05-16T01:24:19.929Z,6.20
2018-05-16T01:25:19.887Z,6.00
2018-05-16T01:26:19.846Z,5.70
2018-05-16T01:27:19.810Z,5.30
2018-05-16T01:28:19.769Z,6.00
2018-05-16T01:29:19.731Z,6.00
2018-05-16T01:30:19.693Z,6.00
2018-05-16T01:31:19.649Z,5.80
2018-05-16T01:32:19.603Z,6.00
2018-05-16T01:33:19.565Z,5.60
2018-05-16T01:34:19.533Z,5.70
2018-05-16T01:35:19.485Z,6.10
2018-05-16T01:36:19.447Z,6.00
2018-05-16T01:37:19.403Z,5.90
2018-05-16T01:38:19.363Z,6.10
2018-05-16T01:39:19.325Z,5.90
2018-05-16T01:40:19.285Z,6.50
2018-05-16T01:41:19.244Z,6.60
2018-05-16T01:42:19.211Z,6.50
2018-05-16T01:43:19.163Z,6.40
2018-05-16T01:44:19.121Z,5.90
2018-05-16T01:45:19.084Z,5.90
2018-05-16T01:46:19.044Z,6.50
2018-05-16T01:47:19.004Z,6.10
2018-05-16T01:48:18.960Z,6.40
2018-05-16T01:49:18.922Z,6.30
2018-05-16T01:50:18.881Z,6.20
2018-05-16T01:51:18.843Z,6.10
2018-05-16T01:52:18.799Z,6.10
2018-05-16T01:53:18.760Z,6.40
2018-05-16T01:54:18.719Z,6.30
2018-05-16T01:55:18.682Z,6.30
2018-05-16T01:56:18.636Z,6.00
2018-05-16T01:57:18.600Z,6.20
2018-05-16T01:58:18.558Z,5.60
2018-05-16T01:59:18.521Z,6.30
2018-05-16T02:00:18.479Z,5.90
2018-05-16T02:01:18.439Z,6.50
2018-05-16T02:02:18.397Z,6.10
2018-05-16T02:03:18.357Z,6.80
2018-05-16T02:04:18.317Z,6.20
2018-05-16T02:05:18.279Z,6.50
2018-05-16T02:06:18.259Z,6.10
2018-05-16T02:07:18.202Z,6.20
2018-05-16T02:08:18.155Z,6.10
2018-05-16T02:09:18.114Z,6.30
2018-05-16T02:10:18.074Z,6.20
2018-05-16T02:11:18.034Z,6.00
2018-05-16T02:12:17.995Z,6.40
2018-05-16T02:13:17.956Z,6.50
2018-05-16T02:14:17.916Z,6.30
2018-05-16T02:15:17.876Z,5.80
2018-05-16T02:16:17.833Z,6.20
2018-05-16T02:17:17.794Z,6.10
2018-05-16T02:18:17.755Z,6.20
2018-05-16T02:19:17.713Z,6.40
2018-05-16T02:20:17.671Z,6.10
2018-05-16T02:21:17.631Z,5.90
2018-05-16T02:22:17.589Z,5.90
2018-05-16T02:23:17.550Z,6.10
2018-05-16T02:24:17.510Z,6.20
2018-05-16T02:25:17.474Z,6.40
2018-05-16T02:26:17.436Z,6.30
2018-05-16T02:27:17.388Z,6.50
2018-05-16T02:28:17.507Z,6.00
2018-05-16T02:29:17.317Z,5.90
2018-05-16T02:30:17.271Z,6.00
2018-05-16T02:31:17.225Z,6.30
2018-05-16T02:32:17.185Z,5.80
2018-05-16T02:33:17.146Z,6.30
2018-05-16T02:34:17.104Z,6.50
2018-05-16T02:35:17.066Z,6.40
2018-05-16T02:36:17.032Z,5.80
2018-05-16T02:37:17.013Z,6.10
2018-05-16T02:38:16.943Z,6.20
2018-05-16T02:39:16.901Z,6.00
2018-05-16T02:40:16.868Z,6.10
2018-05-16T02:41:16.821Z,6.00
2018-05-16T02:42:16.783Z,6.10
2018-05-16T02:43:16.747Z,6.60
2018-05-16T02:44:16.697Z,6.10
2018-05-16T02:45:16.660Z,6.40
2018-05-16T02:46:16.622Z,5.70
2018-05-16T02:47:16.579Z,6.00
2018-05-16T02:48:16.540Z,6.10
2018-05-16T02:49:16.502Z,5.90
2018-05-16T02:50:16.460Z,6.10
2018-05-16T02:51:16.417Z,6.20
2018-05-16T02:52:16.376Z,6.10
2018-05-16T02:53:16.335Z,5.90
2018-05-16T02:54:16.315Z,6.20
2018-05-16T02:55:16.253Z,5.90
2018-05-16T02:56:16.218Z,5.90
2018-05-16T02:57:16.174Z,6.10
2018-05-16T02:58:16.134Z,6.50
2018-05-16T02:59:16.092Z,6.10
2018-05-16T03:00:16.051Z,6.40
2018-05-16T03:01:16.010Z,6.30
2018-05-16T03:02:15.973Z,6.20
2018-05-16T03:03:15.932Z,6.20
2018-05-16T03:04:15.900Z,5.90
2018-05-16T03:05:15.848Z,6.20
2018-05-16T03:06:15.809Z,6.10
2018-05-16T03:07:15.776Z,6.20
2018-05-16T03:08:15.727Z,6.10
2018-05-16T03:09:15.688Z,6.50
2018-05-16T03:10:15.652Z,6.30
2018-05-16T03:11:15.610Z,6.60
2018-05-16T03:12:15.566Z,6.50
2018-05-16T03:13:15.524Z,6.60
2018-05-16T03:14:15.490Z,6.50
2018-05-16T03:15:15.496Z,6.20
2018-05-16T03:16:15.402Z,6.70
2018-05-16T03:17:15.361Z,6.70
2018-05-16T03:18:15.321Z,6.70
2018-05-16T03:19:15.287Z,6.70
2018-05-16T03:20:15.240Z,6.60
2018-05-16T03:21:15.197Z,7.10
2018-05-16T03:22:15.165Z,6.90
2018-05-16T03:23:15.120Z,7.30
2018-05-16T03:24:15.081Z,7.00
2018-05-16T03:25:15.040Z,6.80
2018-05-16T03:26:14.999Z,7.40
2018-05-16T03:27:14.955Z,6.90
2018-05-16T03:28:14.915Z,6.80
2018-05-16T03:29:14.874Z,7.20
2018-05-16T03:30:14.833Z,7.40
2018-05-16T03:31:14.793Z,7.00
2018-05-16T03:32:14.748Z,7.30
2018-05-16T03:33:14.713Z,7.00
2018-05-16T03:34:14.671Z,6.90
2018-05-16T03:35:14.639Z,6.90
2018-05-16T03:36:14.586Z,7.40
2018-05-16T03:37:14.614Z,6.90
2018-05-16T03:38:14.505Z,7.00
2018-05-16T03:39:14.469Z,7.00
2018-05-16T03:40:14.467Z,7.40
2018-05-16T03:41:14.380Z,6.80
2018-05-16T03:42:14.343Z,7.30
2018-05-16T03:43:14.303Z,7.60
2018-05-16T03:44:14.258Z,7.80
2018-05-16T03:45:14.219Z,7.70
2018-05-16T03:46:14.180Z,7.50
2018-05-16T03:47:14.142Z,7.30
2018-05-16T03:48:14.095Z,7.10
2018-05-16T03:49:14.057Z,8.00
2018-05-16T03:50:14.014Z,7.50
2018-05-16T03:51:13.975Z,7.40
2018-05-16T03:52:13.929Z,6.90
2018-05-16T03:53:13.896Z,7.40
2018-05-16T03:54:13.852Z,7.80
2018-05-16T03:55:13.809Z,7.70
2018-05-16T03:56:13.766Z,8.00
2018-05-16T03:57:13.725Z,7.60
2018-05-16T03:58:13.683Z,8.40
2018-05-16T03:59:13.641Z,8.60
2018-05-16T04:00:13.601Z,7.80
2018-05-16T04:01:13.559Z,7.70
2018-05-16T04:02:13.530Z,8.40
2018-05-16T04:03:13.478Z,8.20
2018-05-16T04:04:13.433Z,7.70
2018-05-16T04:05:13.398Z,8.10
2018-05-16T04:06:13.357Z,8.10
2018-05-16T04:07:13.311Z,8.30
2018-05-16T04:08:13.271Z,8.40
2018-05-16T04:09:13.228Z,8.70
2018-05-16T04:10:13.188Z,8.00
2018-05-16T04:11:13.146Z,7.90
2018-05-16T04:12:13.108Z,8.50
2018-05-16T04:13:13.067Z,8.30
2018-05-16T04:14:13.025Z,8.40
2018-05-16T04:15:13.008Z,8.70
2018-05-16T04:16:12.942Z,8.30
2018-05-16T04:17:12.920Z,8.50
2018-05-16T04:18:12.863Z,8.30
2018-05-16T04:19:12.818Z,8.80
2018-05-16T04:20:12.781Z,8.90
2018-05-16T04:21:12.736Z,8.60
2018-05-16T04:22:12.689Z,8.40
2018-05-16T04:23:12.662Z,8.70
2018-05-16T04:24:12.635Z,8.10
2018-05-16T04:25:12.566Z,8.20
2018-05-16T04:26:12.561Z,9.10
2018-05-16T04:27:12.488Z,8.70
2018-05-16T04:28:12.442Z,8.60
2018-05-16T04:29:12.400Z,8.60
2018-05-16T04:30:12.357Z,8.90
2018-05-16T04:31:12.327Z,8.90
2018-05-16T04:32:12.278Z,9.40
2018-05-16T04:33:12.231Z,9.00
2018-05-16T04:34:12.199Z,9.30
2018-05-16T04:35:12.158Z,9.40
2018-05-16T04:36:12.109Z,9.30
2018-05-16T04:37:12.068Z,9.50
2018-05-16T04:38:12.025Z,9.30
2018-05-16T04:39:11.984Z,9.80
2018-05-16T04:40:11.940Z,10.00
2018-05-16T04:41:11.901Z,9.60
2018-05-16T04:42:11.858Z,10.10
2018-05-16T04:43:11.817Z,10.40
2018-05-16T04:44:11.775Z,10.40
2018-05-16T04:45:11.735Z,11.60
2018-05-16T04:46:11.691Z,11.60
2018-05-16T04:47:11.652Z,11.90
2018-05-16T04:48:11.612Z,12.30
2018-05-16T04:49:11.569Z,12.80
2018-05-16T04:50:11.526Z,12.70
2018-05-16T04:51:11.483Z,12.40
2018-05-16T04:52:11.441Z,11.60
2018-05-16T04:53:11.399Z,12.10
2018-05-16T04:54:11.361Z,12.20
2018-05-16T04:55:11.318Z,12.20
2018-05-16T04:56:11.274Z,13.00
2018-05-16T04:57:11.232Z,12.60
2018-05-16T04:58:11.192Z,12.70
2018-05-16T04:59:11.169Z,12.80
2018-05-16T05:00:11.115Z,12.50
2018-05-16T05:01:11.069Z,12.40
2018-05-16T05:02:11.027Z,13.20
2018-05-16T05:03:10.986Z,13.40
2018-05-16T05:04:10.950Z,13.00
2018-05-16T05:05:10.903Z,13.70
2018-05-16T05:06:10.861Z,12.00
2018-05-16T05:07:10.820Z,12.50
2018-05-16T05:08:10.776Z,12.50
2018-05-16T05:09:10.738Z,11.80
2018-05-16T05:10:10.697Z,11.70
2018-05-16T05:11:10.673Z,10.60
2018-05-16T05:12:10.610Z,10.50
2018-05-16T05:13:10.571Z,11.40
2018-05-16T05:14:10.530Z,10.80
2018-05-16T05:15:10.487Z,10.90
2018-05-16T05:16:10.451Z,11.00
2018-05-16T05:17:10.407Z,11.80
2018-05-16T05:18:10.380Z,11.70
2018-05-16T05:19:10.325Z,12.10
2018-05-16T05:20:10.293Z,11.80
2018-05-16T05:21:10.242Z,11.80
2018-05-16T05:22:10.200Z,12.20
2018-05-16T05:23:10.157Z,11.90
2018-05-16T05:24:10.118Z,11.30
2018-05-16T05:25:10.075Z,11.60
2018-05-16T05:26:10.032Z,11.30
2018-05-16T05:27:09.991Z,11.30
2018-05-16T05:28:09.949Z,11.10
2018-05-16T05:29:09.912Z,11.80
2018-05-16T05:30:09.872Z,10.60
2018-05-16T05:31:09.828Z,11.00
2018-05-16T05:32:09.784Z,10.80
2018-05-16T05:33:09.744Z,11.20
2018-05-16T05:34:09.708Z,10.80
2018-05-16T05:35:09.665Z,10.20
2018-05-16T05:36:09.620Z,11.00
2018-05-16T05:37:09.580Z,10.10
2018-05-16T05:38:09.539Z,10.00
2018-05-16T05:39:09.496Z,10.00
2018-05-16T05:40:09.461Z,9.70
2018-05-16T05:41:09.416Z,9.80
2018-05-16T05:42:09.378Z,10.00
2018-05-16T05:43:09.334Z,9.90
2018-05-16T05:44:09.302Z,9.70
2018-05-16T05:45:09.254Z,9.60
2018-05-16T05:46:09.214Z,10.00
2018-05-16T05:47:09.170Z,9.70
2018-05-16T05:48:09.126Z,9.40
2018-05-16T05:49:09.115Z,9.90
2018-05-16T05:50:09.044Z,9.60
2018-05-16T05:51:09.010Z,9.10
2018-05-16T05:52:08.962Z,10.00
2018-05-16T05:53:08.922Z,8.70
2018-05-16T05:54:08.884Z,8.80
2018-05-16T05:55:08.841Z,8.90
2018-05-16T05:56:08.797Z,8.70
2018-05-16T05:57:08.765Z,8.80
2018-05-16T05:58:08.720Z,8.40
2018-05-16T05:59:08.682Z,8.40
2018-05-16T06:01:08.594Z,8.10
2018-05-16T06:02:08.552Z,8.50
2018-05-16T06:03:08.511Z,8.30
2018-05-16T06:04:08.476Z,8.30
2018-05-16T06:05:08.433Z,8.10
2018-05-16T06:06:08.389Z,8.00
2018-05-16T06:07:08.352Z,8.10
2018-05-16T06:08:08.315Z,8.30
2018-05-16T06:09:08.265Z,7.90
2018-05-16T06:10:08.248Z,7.80
2018-05-16T06:11:08.187Z,8.40
2018-05-16T06:12:08.145Z,8.20
2018-05-16T06:13:08.103Z,8.10
2018-05-16T06:14:08.063Z,8.30
2018-05-16T06:15:08.023Z,7.80
2018-05-16T06:16:07.979Z,7.60
2018-05-16T06:17:07.942Z,7.90
2018-05-16T06:18:07.916Z,7.30
2018-05-16T06:19:07.858Z,8.00
2018-05-16T06:20:07.821Z,8.50
2018-05-16T06:21:07.776Z,7.60
2018-05-16T06:22:07.739Z,7.60
2018-05-16T06:23:07.703Z,8.00
2018-05-16T06:24:07.655Z,7.80
2018-05-16T06:25:07.616Z,7.90
2018-05-16T06:26:07.577Z,8.10
2018-05-16T06:27:07.669Z,8.60
2018-05-16T06:28:07.567Z,8.90
2018-05-16T06:29:07.449Z,19.60
2018-05-16T06:30:07.413Z,15.60
2018-05-16T06:31:07.371Z,16.40
2018-05-16T06:32:07.331Z,19.00
2018-05-16T06:33:07.289Z,9.90
2018-05-16T06:34:07.250Z,9.20
2018-05-16T06:35:07.220Z,9.10
2018-05-16T06:36:07.174Z,9.30
2018-05-16T06:37:07.128Z,10.50
2018-05-16T06:38:07.086Z,10.30
2018-05-16T06:39:07.092Z,10.60
2018-05-16T06:40:07.005Z,10.30
2018-05-16T06:41:06.964Z,9.80
2018-05-16T06:42:06.923Z,9.00
2018-05-16T06:43:06.889Z,8.20
2018-05-16T06:44:06.846Z,8.80
2018-05-16T06:45:06.805Z,8.90
2018-05-16T06:46:06.768Z,9.40
2018-05-16T06:47:06.727Z,9.10
2018-05-16T06:48:06.689Z,9.30
2018-05-16T06:49:06.647Z,8.50
2018-05-16T06:50:06.606Z,8.90
2018-05-16T06:51:06.559Z,8.90
2018-05-16T06:52:06.519Z,8.40
2018-05-16T06:53:06.488Z,9.30
2018-05-16T06:54:06.441Z,9.40
2018-05-16T06:55:06.401Z,9.40
2018-05-16T06:56:06.364Z,9.30
2018-05-16T06:57:06.323Z,9.40
2018-05-16T06:58:06.280Z,9.70
2018-05-16T06:59:06.243Z,10.10
2018-05-16T07:00:06.215Z,9.70
2018-05-16T07:01:06.161Z,9.10
2018-05-16T07:02:06.120Z,10.10
2018-05-16T07:03:06.080Z,10.00
2018-05-16T07:04:06.075Z,10.40
2018-05-16T07:05:06.000Z,10.70
2018-05-16T07:06:05.960Z,10.50
2018-05-16T07:07:05.920Z,10.70
2018-05-16T07:08:05.882Z,10.60
2018-05-16T07:09:05.839Z,10.40
2018-05-16T07:10:05.801Z,10.10
2018-05-16T07:11:05.763Z,10.50
2018-05-16T07:12:05.726Z,10.50
2018-05-16T07:13:05.680Z,10.30
2018-05-16T07:14:05.641Z,9.90
2018-05-16T07:15:05.663Z,9.90
2018-05-16T07:16:05.563Z,10.30
2018-05-16T07:17:05.522Z,10.50
2018-05-16T07:18:05.481Z,10.10
2018-05-16T07:19:05.446Z,10.20
2018-05-16T07:20:05.401Z,10.50
2018-05-16T07:21:05.365Z,9.70
2018-05-16T07:22:05.321Z,9.30
2018-05-16T07:23:05.289Z,9.60
2018-05-16T07:24:05.247Z,9.90
2018-05-16T07:25:05.203Z,9.50
2018-05-16T07:26:05.167Z,8.80
2018-05-16T07:27:05.127Z,9.20
2018-05-16T07:28:05.091Z,9.00
2018-05-16T07:29:05.047Z,9.20
2018-05-16T07:30:05.009Z,9.50
2018-05-16T07:31:04.966Z,10.00
2018-05-16T07:32:04.924Z,9.70
2018-05-16T07:33:04.897Z,10.30
2018-05-16T07:34:04.850Z,9.90
2018-05-16T07:35:04.811Z,10.90
2018-05-16T07:36:04.770Z,9.90
2018-05-16T07:37:04.728Z,10.10
2018-05-16T07:38:04.691Z,9.80
2018-05-16T07:39:04.653Z,10.30
2018-05-16T07:40:04.610Z,10.00
2018-05-16T07:41:04.577Z,10.40
2018-05-16T07:42:04.531Z,10.80
2018-05-16T07:43:04.492Z,9.90
2018-05-16T07:44:04.452Z,10.30
2018-05-16T07:45:04.417Z,9.20
2018-05-16T07:46:04.380Z,9.40
2018-05-16T07:47:04.357Z,10.30
2018-05-16T07:48:04.301Z,10.80
2018-05-16T07:49:04.267Z,10.40
2018-05-16T07:50:04.226Z,10.60
2018-05-16T07:51:04.182Z,10.10
2018-05-16T07:52:04.140Z,10.20
2018-05-16T07:53:04.101Z,10.80
2018-05-16T07:54:04.062Z,10.20
2018-05-16T07:55:04.024Z,11.40
2018-05-16T07:56:04.079Z,11.40
2018-05-16T07:57:03.948Z,10.90
2018-05-16T07:58:03.908Z,12.00
2018-05-16T07:59:03.866Z,12.00
2018-05-16T08:00:03.829Z,12.40
2018-05-16T08:01:03.796Z,11.10
2018-05-16T08:02:03.752Z,11.10
2018-05-16T08:03:03.718Z,10.90
2018-05-16T08:04:03.672Z,10.00
2018-05-16T08:05:03.635Z,9.50
2018-05-16T08:06:03.598Z,9.40
2018-05-16T08:07:03.559Z,9.40
2018-05-16T08:08:03.519Z,9.90
2018-05-16T08:09:03.483Z,9.90
2018-05-16T08:10:03.442Z,9.50
2018-05-16T08:11:03.408Z,9.60
2018-05-16T08:12:03.367Z,9.10
2018-05-16T08:13:03.323Z,9.30
2018-05-16T08:14:03.294Z,9.60
2018-05-16T08:15:03.246Z,9.70
2018-05-16T08:16:03.212Z,9.40
2018-05-16T08:17:03.170Z,9.60
2018-05-16T08:18:03.129Z,9.90
2018-05-16T08:19:03.094Z,9.30
2018-05-16T08:20:03.053Z,9.10
2018-05-16T08:21:03.013Z,9.90
2018-05-16T08:22:02.985Z,10.00
2018-05-16T08:23:02.938Z,9.30
2018-05-16T08:24:02.898Z,9.50
2018-05-16T08:25:02.860Z,10.30
2018-05-16T08:26:02.820Z,9.80
2018-05-16T08:27:02.787Z,9.80
2018-05-16T08:28:02.745Z,10.30
2018-05-16T08:29:02.711Z,10.20
2018-05-16T08:30:02.667Z,10.00
2018-05-16T08:31:02.705Z,10.40
2018-05-16T08:32:02.590Z,10.10
2018-05-16T08:33:02.556Z,9.20
2018-05-16T08:34:02.518Z,8.30
2018-05-16T08:35:02.481Z,9.40
2018-05-16T08:36:02.439Z,8.40
2018-05-16T08:37:02.402Z,8.30
2018-05-16T08:38:02.367Z,7.70
2018-05-16T08:39:02.332Z,8.70
2018-05-16T08:40:02.292Z,9.40
2018-05-16T08:41:02.258Z,9.00
2018-05-16T08:42:02.218Z,9.50
2018-05-16T08:43:02.227Z,9.40
2018-05-16T08:44:02.144Z,9.90
2018-05-16T08:45:02.108Z,9.70
2018-05-16T08:46:02.067Z,9.60
2018-05-16T08:47:02.036Z,13.50
2018-05-16T08:48:01.989Z,13.20
2018-05-16T08:49:01.960Z,10.50
2018-05-16T08:50:01.916Z,10.60
2018-05-16T08:51:01.883Z,10.80
2018-05-16T08:52:01.887Z,10.30
2018-05-16T08:53:01.804Z,10.00
2018-05-16T08:54:01.769Z,9.60
2018-05-16T08:55:01.732Z,9.70
2018-05-16T08:56:01.695Z,10.80
2018-05-16T08:57:01.660Z,9.90
2018-05-16T08:58:01.621Z,9.40
2018-05-16T08:59:01.587Z,9.60
2018-05-16T09:00:01.548Z,10.00
2018-05-16T09:01:01.525Z,9.60
2018-05-16T09:02:01.476Z,9.60
2018-05-16T09:03:01.440Z,9.60
2018-05-16T09:04:01.402Z,9.90
2018-05-16T09:05:01.368Z,10.40
2018-05-16T09:06:01.329Z,9.80
2018-05-16T09:07:01.292Z,8.60
2018-05-16T09:08:01.258Z,9.00
2018-05-16T09:09:01.220Z,9.60
2018-05-16T09:10:01.185Z,9.30
2018-05-16T09:11:01.152Z,8.70
2018-05-16T09:12:01.113Z,9.20
2018-05-16T09:13:01.077Z,8.90
2018-05-16T09:14:01.046Z,8.80
2018-05-16T09:15:01.008Z,7.80
2018-05-16T09:16:00.975Z,7.50
2018-05-16T09:17:00.932Z,7.50
2018-05-16T09:18:00.897Z,7.90
2018-05-16T09:19:00.865Z,7.60
2018-05-16T09:20:00.823Z,8.30
2018-05-16T09:21:00.789Z,7.70
2018-05-16T09:22:00.754Z,7.50
2018-05-16T09:23:00.728Z,7.90
2018-05-16T09:24:00.683Z,7.90
2018-05-16T09:25:00.645Z,7.70
2018-05-16T09:26:00.612Z,8.10
2018-05-16T09:27:00.574Z,7.70
2018-05-16T09:28:00.537Z,7.40
2018-05-16T09:29:00.523Z,7.20
2018-05-16T09:30:00.474Z,7.40
2018-05-16T09:31:00.441Z,6.80
2018-05-16T09:32:00.394Z,6.90
2018-05-16T09:33:00.363Z,6.80
2018-05-16T09:34:00.323Z,6.50
2018-05-16T09:35:00.295Z,7.10
2018-05-16T09:36:00.252Z,7.00
2018-05-16T09:37:00.218Z,7.50
2018-05-16T09:38:00.177Z,7.30
2018-05-16T09:39:00.149Z,7.80
2018-05-16T09:40:00.110Z,8.40
2018-05-16T09:41:00.079Z,7.90
2018-05-16T09:42:00.055Z,8.20
2018-05-16T09:43:00.000Z,7.70
2018-05-16T09:43:59.965Z,7.80
2018-05-16T09:44:59.934Z,7.60
2018-05-16T09:45:59.907Z,7.50
2018-05-16T09:46:59.858Z,8.00
2018-05-16T09:47:59.820Z,7.70
2018-05-16T09:48:59.783Z,7.60
2018-05-16T09:49:59.750Z,7.70
2018-05-16T09:50:59.715Z,7.40
2018-05-16T09:51:59.676Z,7.30
2018-05-16T09:52:59.655Z,7.90
2018-05-16T09:53:59.605Z,7.80
2018-05-16T09:54:59.568Z,8.30
2018-05-16T09:55:59.531Z,8.70
2018-05-16T09:56:59.496Z,8.60
2018-05-16T09:57:59.465Z,7.90
2018-05-16T09:58:59.425Z,8.30
2018-05-16T09:59:59.389Z,8.20
2018-05-16T10:00:59.355Z,8.40
2018-05-16T10:01:59.319Z,8.40
2018-05-16T10:02:59.286Z,9.00
2018-05-16T10:03:59.248Z,8.10
2018-05-16T10:04:59.213Z,7.70
2018-05-16T10:05:59.177Z,8.50
2018-05-16T10:06:59.146Z,8.00
2018-05-16T10:07:59.104Z,8.00
2018-05-16T10:08:59.069Z,8.10
2018-05-16T10:09:59.041Z,8.30
2018-05-16T10:10:59.001Z,8.00
2018-05-16T10:11:58.965Z,8.40
2018-05-16T10:12:58.929Z,8.20
2018-05-16T10:13:58.895Z,8.60
2018-05-16T10:14:58.860Z,8.10
2018-05-16T10:15:58.822Z,8.00
2018-05-16T10:16:58.860Z,8.20
2018-05-16T10:17:58.757Z,8.20
2018-05-16T10:18:58.718Z,8.80
2018-05-16T10:19:58.685Z,8.30
2018-05-16T10:20:58.647Z,7.90
2018-05-16T10:21:58.613Z,8.00
2018-05-16T10:22:58.579Z,9.10
2018-05-16T10:23:58.550Z,8.30
2018-05-16T10:24:58.507Z,8.30
2018-05-16T10:25:58.472Z,8.70
2018-05-16T10:26:58.438Z,8.60
2018-05-16T10:27:58.405Z,8.70
2018-05-16T10:28:58.369Z,8.30
2018-05-16T10:29:58.329Z,8.60
2018-05-16T10:30:58.295Z,8.80
2018-05-16T10:31:58.259Z,8.90
2018-05-16T10:32:58.224Z,8.20
2018-05-16T10:33:58.188Z,9.10
2018-05-16T10:34:58.151Z,8.10
2018-05-16T10:35:58.123Z,8.60
2018-05-16T10:36:58.080Z,8.30
2018-05-16T10:37:58.047Z,8.80
2018-05-16T10:38:58.011Z,8.50
2018-05-16T10:39:57.974Z,8.90
2018-05-16T10:40:57.939Z,8.40
2018-05-16T10:41:57.902Z,8.40
2018-05-16T10:42:57.871Z,8.90
2018-05-16T10:43:57.832Z,9.20
2018-05-16T10:44:57.795Z,8.70
2018-05-16T10:45:57.763Z,9.20
2018-05-16T10:46:57.727Z,8.30
2018-05-16T10:47:57.688Z,8.90
2018-05-16T10:48:57.657Z,8.60
2018-05-16T10:49:57.618Z,8.60
2018-05-16T10:50:57.586Z,9.00
2018-05-16T10:51:57.547Z,8.70
2018-05-16T10:52:57.512Z,8.50
2018-05-16T10:53:57.475Z,9.20
2018-05-16T10:54:57.440Z,8.80
2018-05-16T10:55:57.451Z,8.60
2018-05-16T10:56:57.366Z,8.40
2018-05-16T10:57:57.329Z,8.90
2018-05-16T10:58:57.297Z,9.20
2018-05-16T10:59:57.260Z,9.00
2018-05-16T11:00:57.219Z,8.60
2018-05-16T11:01:57.196Z,8.20
2018-05-16T11:02:57.151Z,7.90
2018-05-16T11:03:57.147Z,7.70
2018-05-16T11:04:57.087Z,7.80
2018-05-16T11:05:57.038Z,7.40
2018-05-16T11:06:57.002Z,7.60
2018-05-16T11:07:56.964Z,7.10
2018-05-16T11:08:56.935Z,7.00
2018-05-16T11:09:56.890Z,7.40
2018-05-16T11:10:56.854Z,7.00
2018-05-16T11:11:56.817Z,6.90
2018-05-16T11:12:56.784Z,7.00
2018-05-16T11:13:56.745Z,6.70
2018-05-16T11:14:56.709Z,6.60
2018-05-16T11:15:56.675Z,6.80
2018-05-16T11:16:56.634Z,7.00
2018-05-16T11:17:56.597Z,7.30
2018-05-16T11:18:56.561Z,6.80
2018-05-16T11:19:56.528Z,7.60
2018-05-16T11:20:56.488Z,7.00
2018-05-16T11:21:56.451Z,7.00
2018-05-16T11:22:56.413Z,7.20
2018-05-16T11:23:56.377Z,7.40
2018-05-16T11:24:56.338Z,7.10
2018-05-16T11:25:56.305Z,7.30
2018-05-16T11:26:56.266Z,7.10
2018-05-16T11:27:56.227Z,7.40
2018-05-16T11:28:56.190Z,6.80
2018-05-16T11:29:56.153Z,6.90
2018-05-16T11:30:56.117Z,7.10
2018-05-16T11:31:56.081Z,7.10
2018-05-16T11:32:56.048Z,6.40
2018-05-16T11:33:56.009Z,7.10
2018-05-16T11:34:55.970Z,6.20
2018-05-16T11:35:56.159Z,5.90
2018-05-16T11:36:55.899Z,6.60
2018-05-16T11:37:55.862Z,6.30
2018-05-16T11:38:55.824Z,6.10
2018-05-16T11:39:55.785Z,6.00
2018-05-16T11:40:55.764Z,6.00
2018-05-16T11:41:55.714Z,6.20
2018-05-16T11:42:55.679Z,5.80
2018-05-16T11:43:55.640Z,6.40
2018-05-16T11:44:55.607Z,6.20
2018-05-16T11:45:55.570Z,6.40
2018-05-16T11:46:55.530Z,5.90
2018-05-16T11:47:55.494Z,6.80
2018-05-16T11:48:55.496Z,6.10
2018-05-16T11:49:55.419Z,6.30
2018-05-16T11:50:55.383Z,6.70
2018-05-16T11:51:55.369Z,6.80
2018-05-16T11:52:55.315Z,6.50
2018-05-16T11:53:55.276Z,7.10
2018-05-16T11:54:55.240Z,6.60
2018-05-16T11:55:55.203Z,6.80
2018-05-16T11:56:55.180Z,6.60
2018-05-16T11:57:55.129Z,6.70
2018-05-16T11:58:55.092Z,6.50
2018-05-16T11:59:55.058Z,6.50
2018-05-16T12:00:55.020Z,6.40
2018-05-16T12:01:54.987Z,7.50
2018-05-16T12:02:54.988Z,7.30
2018-05-16T12:03:54.917Z,7.10
2018-05-16T12:04:54.871Z,7.20
2018-05-16T12:05:54.842Z,7.50
2018-05-16T12:06:54.798Z,7.50
2018-05-16T12:07:54.863Z,7.50
2018-05-16T12:08:54.729Z,7.20
2018-05-16T12:09:54.690Z,7.40
2018-05-16T12:10:54.658Z,8.00
2018-05-16T12:11:54.618Z,7.70
2018-05-16T12:12:54.584Z,7.40
2018-05-16T12:13:54.552Z,7.30
2018-05-16T12:14:54.541Z,7.90
2018-05-16T12:15:54.478Z,7.70
2018-05-16T12:16:54.437Z,8.00
2018-05-16T12:17:54.402Z,7.30
2018-05-16T12:18:54.372Z,7.30
2018-05-16T12:19:54.330Z,7.20
2018-05-16T12:20:54.292Z,7.50
2018-05-16T12:21:54.268Z,6.90
2018-05-16T12:22:54.227Z,8.20
2018-05-16T12:23:54.182Z,7.40
2018-05-16T12:24:54.194Z,7.70
2018-05-16T12:25:54.110Z,7.90
2018-05-16T12:26:54.076Z,7.30
2018-05-16T12:27:54.040Z,7.60
2018-05-16T12:28:54.023Z,7.80
2018-05-16T12:29:53.965Z,8.00
2018-05-16T12:30:53.933Z,7.60
2018-05-16T12:31:53.891Z,8.00
2018-05-16T12:32:53.857Z,7.10
2018-05-16T12:33:53.828Z,7.50
2018-05-16T12:34:53.785Z,6.90
2018-05-16T12:35:53.756Z,7.50
2018-05-16T12:36:53.744Z,7.00
2018-05-16T12:37:53.680Z,7.60
2018-05-16T12:38:53.640Z,7.50
2018-05-16T12:39:53.607Z,7.10
2018-05-16T12:40:53.568Z,7.40
2018-05-16T12:41:53.545Z,7.40
2018-05-16T12:42:53.495Z,7.10
2018-05-16T12:43:53.479Z,6.90
2018-05-16T12:44:53.423Z,6.70
2018-05-16T12:45:53.394Z,7.00
2018-05-16T12:46:53.352Z,6.70
2018-05-16T12:47:53.316Z,6.50
2018-05-16T12:48:53.279Z,6.80
2018-05-16T12:49:53.240Z,6.80
2018-05-16T12:50:53.205Z,7.00
2018-05-16T12:51:53.173Z,6.60
2018-05-16T12:52:53.150Z,6.70
2018-05-16T12:53:53.096Z,7.50
2018-05-16T12:54:53.062Z,7.20
2018-05-16T12:55:53.022Z,6.90
2018-05-16T12:56:52.988Z,7.00
2018-05-16T12:57:52.955Z,7.20
2018-05-16T12:58:52.917Z,6.90
2018-05-16T12:59:52.884Z,7.20
2018-05-16T13:00:52.848Z,7.10
2018-05-16T13:01:52.815Z,7.40
2018-05-16T13:02:52.775Z,7.00
2018-05-16T13:03:52.792Z,7.10
2018-05-16T13:04:52.705Z,7.10
2018-05-16T13:05:52.678Z,7.40
2018-05-16T13:06:52.640Z,7.30
2018-05-16T13:07:52.601Z,6.80
2018-05-16T13:08:55.467Z,7.30
2018-05-16T13:09:52.531Z,7.30
2018-05-16T13:10:52.495Z,7.30
2018-05-16T13:11:52.463Z,7.10
2018-05-16T13:12:52.430Z,7.10
2018-05-16T13:13:52.390Z,7.50
2018-05-16T13:14:52.362Z,7.10